Time;durP1;ratioP1;P1;durP2;ratioP2;P2;SDS_P1;SDS_P2;PMS_P1;PMS_P2;Temp;Humidity;BMP_temperature;BMP_pressure;BME280_temperature;BME280_humidity;BME280_pressure;Samples;Min_cycle;Max_cycle;Signal;HPM_P1;HPM_P2
2024/01/13 00:00:25;;;;;;;11.95;6.53;;;;;;;-146.25;100.00;52700.72;2032735;29;20036;-73
2024/01/13 00:01:26;;;;;;;11.57;7.22;;;;;;;-146.25;100.00;52615.56;2031703;29;38414;-70
2024/01/13 00:02:28;;;;;;;14.18;6.68;;;;;;;-146.25;100.00;52682.47;2024197;29;20077;-70
2024/01/13 00:03:30;;;;;;;15.00;6.63;;;;;;;-146.25;100.00;52680.47;2024088;29;34626;-70
2024/01/13 00:04:32;;;;;;;12.05;6.93;;;;;;;-146.25;100.00;52686.53;2031657;29;35179;-70
2024/01/13 00:05:36;;;;;;;12.45;6.35;;;;;;;-146.25;100.00;52706.81;2033122;29;20038;-70
2024/01/13 00:06:38;;;;;;;12.70;7.40;;;;;;;-146.25;100.00;52670.31;2031276;29;34821;-70
2024/01/13 00:07:42;;;;;;;10.23;5.85;;;;;;;-146.25;100.00;52690.59;2031887;29;34635;-69
2024/01/13 00:08:44;;;;;;;10.25;6.53;;;;;;;-146.25;100.00;52672.34;2032238;29;20172;-69
2024/01/13 00:09:46;;;;;;;11.80;6.05;;;;;;;-146.25;100.00;52670.31;2031987;29;37479;-69
2024/01/13 00:10:47;;;;;;;10.70;6.63;;;;;;;-146.25;100.00;52684.50;2032089;29;33348;-70
2024/01/13 00:11:50;;;;;;;11.48;6.20;;;;;;;-146.25;100.00;52706.81;2033022;29;20041;-69
2024/01/13 00:12:51;;;;;;;12.32;6.32;;;;;;;-146.25;100.00;52694.66;2032186;29;35396;-70
2024/01/13 00:13:54;;;;;;;13.40;6.57;;;;;;;-146.25;100.00;52668.28;2031209;29;36644;-70
2024/01/13 00:14:55;;;;;;;16.08;6.68;;;;;;;-146.25;100.00;52676.41;2031755;29;20135;-72
2024/01/13 00:15:57;;;;;;;11.32;6.57;;;;;;;-146.25;100.00;52706.81;2031701;29;34928;-71
2024/01/13 00:16:59;;;;;;;10.55;6.18;;;;;;;-146.25;100.00;52680.47;2032097;29;37610;-71
2024/01/13 00:18:06;;;;;;;16.40;6.75;;;;;;;-146.25;100.00;52662.22;2033108;29;20044;-70
2024/01/13 00:19:09;;;;;;;10.45;6.10;;;;;;;-146.25;100.00;52698.72;2031746;29;37685;-70
2024/01/13 00:20:11;;;;;;;12.63;6.55;;;;;;;-146.25;100.00;52660.19;2032213;29;29581;-70
2024/01/13 00:21:13;;;;;;;10.93;5.90;;;;;;;-146.25;100.00;52670.31;2032394;29;20088;-71
2024/01/13 00:22:15;;;;;;;13.25;6.63;;;;;;;-146.25;100.00;52656.13;2032232;29;36132;-70
2024/01/13 00:23:16;;;;;;;11.73;6.82;;;;;;;-146.25;100.00;52721.00;2032053;29;36100;-71
2024/01/13 00:24:18;;;;;;;10.65;6.40;;;;;;;-146.25;100.00;52666.25;2032106;29;20159;-71
2024/01/13 00:25:20;;;;;;;12.00;5.75;;;;;;;-146.25;100.00;52643.97;2031635;29;37587;-72
2024/01/13 00:26:23;;;;;;;10.00;6.03;;;;;;;-146.25;100.00;52633.81;2036367;29;28786;-71
2024/01/13 00:27:28;;;;;;;11.65;6.10;;;;;;;-146.25;100.00;52676.41;2040033;29;20044;-71
2024/01/13 00:28:29;;;;;;;9.45;6.00;;;;;;;-146.25;100.00;52696.69;2039896;29;37351;-70
2024/01/13 00:29:35;;;;;;;9.25;5.88;;;;;;;-146.25;100.00;52690.59;2039108;29;34343;-71
2024/01/13 00:30:37;;;;;;;10.02;5.25;;;;;;;-146.25;100.00;52684.50;2041274;29;20051;-71
2024/01/13 00:31:38;;;;;;;13.52;5.35;;;;;;;-146.25;100.00;52696.69;2031814;29;30807;-71
2024/01/13 00:32:40;;;;;;;12.82;5.72;;;;;;;-146.25;100.00;52664.22;2032017;29;32718;-70
2024/01/13 00:33:44;;;;;;;10.77;5.60;;;;;;;-146.25;100.00;52680.47;2032148;29;20985;-71
2024/01/13 00:34:46;;;;;;;10.63;5.60;;;;;;;-146.25;100.00;52712.91;2031077;29;20144;-68
2024/01/13 00:35:48;;;;;;;12.27;6.03;;;;;;;-146.25;100.00;52690.59;2023965;29;34202;-71
2024/01/13 00:36:50;;;;;;;11.02;5.65;;;;;;;-146.25;100.00;52645.97;2024919;29;20048;-70
2024/01/13 00:37:52;;;;;;;11.90;6.15;;;;;;;-146.25;100.00;52692.63;2032102;29;35737;-72
2024/01/13 00:38:53;;;;;;;11.05;5.55;;;;;;;-146.25;100.00;52668.28;2032247;29;34755;-71
2024/01/13 00:39:55;;;;;;;11.05;5.88;;;;;;;-146.25;100.00;52668.28;2031700;29;34729;-71
2024/01/13 00:40:58;;;;;;;11.98;5.03;;;;;;;-146.25;100.00;52704.78;2032199;29;31635;-71
2024/01/13 00:42:00;;;;;;;10.93;5.13;;;;;;;-146.25;100.00;52670.31;2032964;29;20090;-72
2024/01/13 00:43:01;;;;;;;11.57;5.43;;;;;;;-146.25;100.00;52698.72;2031375;29;35290;-71
2024/01/13 00:44:03;;;;;;;12.65;5.53;;;;;;;-146.25;100.00;52639.91;2032073;29;35383;-71
2024/01/13 00:45:06;;;;;;;12.13;5.93;;;;;;;-146.25;100.00;52680.47;2032397;29;20052;-70
2024/01/13 00:46:08;;;;;;;14.25;5.88;;;;;;;-146.25;100.00;52648.00;2037459;29;30886;-72
2024/01/13 00:47:10;;;;;;;13.82;5.97;;;;;;;-146.25;100.00;52660.19;2040359;29;34046;-71
2024/01/13 00:48:11;;;;;;;10.85;4.90;;;;;;;-146.25;100.00;52733.19;2040187;29;33297;-71
2024/01/13 00:49:23;;;;;;;13.40;5.47;;;;;;;-146.25;100.00;52686.53;2040859;29;20044;-70
2024/01/13 00:50:25;;;;;;;11.68;5.25;;;;;;;-146.25;100.00;52686.53;2040268;29;33217;-71
2024/01/13 00:51:26;;;;;;;11.35;5.40;;;;;;;-146.25;100.00;52686.53;2040655;29;32080;-70
2024/01/13 00:52:29;;;;;;;9.70;5.10;;;;;;;-146.25;100.00;52672.34;2040219;29;34048;-71
2024/01/13 00:53:33;;;;;;;10.88;5.38;;;;;;;-146.25;100.00;52678.44;2040489;29;20159;-71
2024/01/13 00:54:35;;;;;;;13.13;5.60;;;;;;;-146.25;100.00;52658.16;2040180;29;34885;-71
2024/01/13 00:55:37;;;;;;;11.93;5.60;;;;;;;-146.25;100.00;52721.00;2040178;29;34488;-70
2024/01/13 00:56:39;;;;;;;13.13;5.30;;;;;;;-146.25;100.00;52682.47;2039732;29;36437;-70
2024/01/13 00:57:41;;;;;;;11.93;5.95;;;;;;;-146.25;100.00;52674.38;2032373;29;20053;-69
2024/01/13 00:58:42;;;;;;;12.43;5.82;;;;;;;-146.25;100.00;52680.47;2031372;29;39152;-70
2024/01/13 00:59:45;;;;;;;12.88;5.35;;;;;;;-146.25;100.00;52662.22;2040880;29;20875;-70
2024/01/13 01:00:47;;;;;;;15.65;5.55;;;;;;;-146.25;100.00;52696.69;2041463;28;34326;-70
2024/01/13 01:01:49;;;;;;;12.75;6.05;;;;;;;-146.25;100.00;52664.22;2041117;29;36667;-68
2024/01/13 01:02:53;;;;;;;17.65;6.22;;;;;;;-146.25;100.00;52692.63;2040152;29;20175;-71
2024/01/13 01:03:55;;;;;;;15.38;6.10;;;;;;;-146.25;100.00;52676.41;2039553;28;38200;-69
2024/01/13 01:04:57;;;;;;;11.25;5.75;;;;;;;-146.25;100.00;52692.63;2039323;28;32778;-71
2024/01/13 01:05:59;;;;;;;14.15;5.90;;;;;;;-146.25;100.00;52716.97;2040206;29;20123;-70
2024/01/13 01:07:04;;;;;;;11.65;5.90;;;;;;;-146.25;100.00;52654.09;2039532;29;36135;-71
2024/01/13 01:08:06;;;;;;;11.32;6.20;;;;;;;-146.25;100.00;52684.50;2040660;29;20878;-69
2024/01/13 01:09:08;;;;;;;15.25;5.97;;;;;;;-146.25;100.00;52678.44;2039636;29;29042;-71
2024/01/13 01:10:12;;;;;;;15.18;6.35;;;;;;;-146.25;100.00;52680.47;2039897;29;33624;-69
2024/01/13 01:11:13;;;;;;;13.77;6.20;;;;;;;-146.25;100.00;52700.72;2039174;29;34810;-70
2024/01/13 01:12:15;;;;;;;15.90;6.20;;;;;;;-146.25;100.00;52674.38;2039751;29;28821;-68
2024/01/13 01:13:17;;;;;;;12.98;6.43;;;;;;;-146.25;100.00;52682.47;2038151;29;20162;-71
2024/01/13 01:14:21;;;;;;;16.92;6.50;;;;;;;-146.25;100.00;52682.47;2031651;29;27204;-71
2024/01/13 01:15:23;;;;;;;10.77;6.30;;;;;;;-146.25;100.00;52641.94;2031815;29;26223;-71
2024/01/13 01:16:25;;;;;;;15.20;6.32;;;;;;;-146.25;100.00;52682.47;2031815;29;23144;-70
2024/01/13 01:17:27;;;;;;;12.20;6.15;;;;;;;-146.25;100.00;52682.47;2031257;29;20899;-70
2024/01/13 01:18:28;;;;;;;13.90;6.28;;;;;;;-146.25;100.00;52714.94;2032043;29;20092;-70
2024/01/13 01:19:39;;;;;;;12.32;5.97;;;;;;;-146.25;100.00;52656.13;2031939;29;26912;-71
2024/01/13 01:20:41;;;;;;;15.07;6.47;;;;;;;-146.25;100.00;52678.44;2032110;29;20040;-70
2024/01/13 01:21:43;;;;;;;17.13;6.55;;;;;;;-146.25;100.00;52692.63;2032037;29;20066;-70
2024/01/13 01:22:45;;;;;;;14.65;6.45;;;;;;;-146.25;100.00;52643.97;2032366;29;20036;-70
2024/01/13 01:23:48;;;;;;;9.30;5.93;;;;;;;-146.25;100.00;52660.19;2031564;29;34557;-71
2024/01/13 01:24:52;;;;;;;16.92;6.30;;;;;;;-146.25;100.00;52702.75;2032767;29;20142;-70
2024/01/13 01:25:54;;;;;;;17.30;5.95;;;;;;;-146.25;100.00;52637.88;2031182;29;20055;-70
2024/01/13 01:26:56;;;;;;;15.32;6.80;;;;;;;-146.25;100.00;52729.13;2031446;29;21419;-70
2024/01/13 01:27:58;;;;;;;11.23;6.03;;;;;;;-146.25;100.00;52710.88;2031344;29;37925;-71
2024/01/13 01:28:59;;;;;;;14.10;6.38;;;;;;;-146.25;100.00;52680.47;2031617;29;34880;-70
2024/01/13 01:30:01;;;;;;;14.60;7.05;;;;;;;-146.25;100.00;52674.38;2031596;29;34312;-71
2024/01/13 01:31:06;;;;;;;14.63;7.18;;;;;;;-146.25;100.00;52674.38;2030968;29;36786;-70
2024/01/13 01:32:09;;;;;;;18.25;7.82;;;;;;;-146.25;100.00;52662.22;2031989;29;20107;-70
2024/01/13 01:33:11;;;;;;;16.58;7.70;;;;;;;-146.25;100.00;52692.63;2031559;29;33235;-70
2024/01/13 01:34:15;;;;;;;12.55;7.25;;;;;;;-146.25;100.00;52731.16;2031221;29;32696;-71
2024/01/13 01:35:17;;;;;;;14.93;7.20;;;;;;;-146.25;100.00;52680.47;2031830;29;20036;-70
2024/01/13 01:36:23;;;;;;;17.92;7.53;;;;;;;-146.25;100.00;52694.66;2031179;29;33951;-71
2024/01/13 01:37:25;;;;;;;17.02;7.60;;;;;;;-146.25;100.00;52721.00;2031383;29;30373;-70
2024/01/13 01:38:27;;;;;;;13.05;7.35;;;;;;;-146.25;100.00;52718.97;2030974;29;31415;-71
2024/01/13 01:39:36;;;;;;;13.25;7.25;;;;;;;-146.25;100.00;52682.47;2031495;29;37644;-71
2024/01/13 01:40:40;;;;;;;16.42;7.43;;;;;;;-146.25;100.00;52680.47;2031906;29;20045;-71
2024/01/13 01:41:41;;;;;;;12.90;7.38;;;;;;;-146.25;100.00;52674.38;2030652;29;34534;-71
2024/01/13 01:42:43;;;;;;;17.45;7.45;;;;;;;-146.25;100.00;52690.59;2030422;29;35215;-71
2024/01/13 01:43:46;;;;;;;16.45;7.75;;;;;;;-146.25;100.00;52676.41;2031663;29;32748;-70
2024/01/13 01:44:47;;;;;;;12.75;7.85;;;;;;;-146.25;100.00;52672.34;2030955;29;37766;-70
2024/01/13 01:45:54;;;;;;;16.33;8.45;;;;;;;-146.25;100.00;52690.59;2031700;29;20823;-69
2024/01/13 01:46:59;;;;;;;15.85;7.43;;;;;;;-146.25;100.00;52684.50;2032627;29;36830;-70
2024/01/13 01:48:07;;;;;;;14.90;8.30;;;;;;;-146.25;100.00;52704.78;2023709;29;20044;-70
2024/01/13 01:49:13;;;;;;;15.13;7.22;;;;;;;-146.25;100.00;52692.63;2025262;29;37019;-71
2024/01/13 01:50:18;;;;;;;17.45;7.40;;;;;;;-146.25;100.00;52676.41;2037054;29;34838;-70
2024/01/13 01:51:22;;;;;;;12.90;7.20;;;;;;;-146.25;100.00;52714.94;2039779;29;33301;-71
2024/01/13 01:52:25;;;;;;;15.70;7.03;;;;;;;-146.25;100.00;52674.38;2039270;29;36334;-70
2024/01/13 01:53:27;;;;;;;14.73;7.20;;;;;;;-146.25;100.00;52672.34;2040051;29;27303;-71
2024/01/13 01:54:29;;;;;;;13.60;7.90;;;;;;;-146.25;100.00;52696.69;2039590;29;36353;-70
2024/01/13 01:55:31;;;;;;;17.65;7.65;;;;;;;-146.25;100.00;52733.19;2040297;29;20032;-71
2024/01/13 01:56:34;;;;;;;16.20;8.43;;;;;;;-146.25;100.00;52686.53;2038932;29;34453;-71
2024/01/13 01:57:40;;;;;;;14.40;7.40;;;;;;;-146.25;100.00;52674.38;2038564;29;32644;-71
2024/01/13 01:58:44;;;;;;;14.85;7.47;;;;;;;-146.25;100.00;52670.31;2039639;29;29434;-70
2024/01/13 01:59:46;;;;;;;15.52;7.22;;;;;;;-146.25;100.00;52660.19;2039399;29;36803;-71
2024/01/13 02:00:49;;;;;;;13.07;7.32;;;;;;;-146.25;100.00;52706.81;2040275;29;20841;-70
2024/01/13 02:01:52;;;;;;;14.05;7.30;;;;;;;-146.25;100.00;52668.28;2039030;29;35906;-71
2024/01/13 02:02:55;;;;;;;15.35;7.40;;;;;;;-146.25;100.00;52712.91;2038171;29;32884;-70
2024/01/13 02:03:59;;;;;;;12.25;7.35;;;;;;;-146.25;100.00;52656.13;2031934;29;32021;-71
2024/01/13 02:05:03;;;;;;;13.55;7.18;;;;;;;-146.25;100.00;52690.59;2038578;28;38303;-70
2024/01/13 02:06:05;;;;;;;15.45;6.68;;;;;;;-146.25;100.00;52680.47;2039167;29;20044;-71
2024/01/13 02:07:09;;;;;;;12.40;7.63;;;;;;;-146.25;100.00;52680.47;2031444;29;30324;-70
2024/01/13 02:08:11;;;;;;;11.75;7.40;;;;;;;-146.25;100.00;52696.69;2039773;29;32551;-70
2024/01/13 02:09:19;;;;;;;13.70;7.20;;;;;;;-146.25;100.00;52733.19;2040077;29;34100;-71
2024/01/13 02:10:22;;;;;;;14.50;7.85;;;;;;;-146.25;100.00;52735.22;2040167;29;36828;-71
2024/01/13 02:11:24;;;;;;;12.07;7.30;;;;;;;-146.25;100.00;52670.31;2039828;29;20119;-70
2024/01/13 02:12:26;;;;;;;11.80;7.60;;;;;;;-146.25;100.00;52676.41;2039503;29;26195;-70
2024/01/13 02:13:29;;;;;;;15.07;7.53;;;;;;;-146.25;100.00;52645.97;2036089;29;24831;-70
2024/01/13 02:14:31;;;;;;;14.65;7.88;;;;;;;-146.25;100.00;52639.91;2031218;29;22602;-70
2024/01/13 02:15:33;;;;;;;11.52;6.93;;;;;;;-146.25;100.00;52650.03;2030578;29;36264;-70
2024/01/13 02:16:34;;;;;;;13.15;7.18;;;;;;;-146.25;100.00;52698.72;2031135;29;29303;-70
2024/01/13 02:17:36;;;;;;;13.93;7.55;;;;;;;-146.25;100.00;52672.34;2032925;29;34037;-70
2024/01/13 02:18:41;;;;;;;11.88;7.30;;;;;;;-146.25;100.00;52714.94;2031343;29;36164;-71
2024/01/13 02:19:44;;;;;;;15.23;7.03;;;;;;;-146.25;100.00;52692.63;2031743;29;20079;-70
2024/01/13 02:20:46;;;;;;;14.43;6.93;;;;;;;-146.25;100.00;52680.47;2031708;29;38093;-71
2024/01/13 02:21:48;;;;;;;12.20;7.35;;;;;;;-146.25;100.00;52725.06;2031439;29;33494;-70
2024/01/13 02:22:49;;;;;;;15.45;7.40;;;;;;;-146.25;100.00;52694.66;2032183;29;20052;-70
2024/01/13 02:23:51;;;;;;;15.52;7.45;;;;;;;-146.25;100.00;52652.06;2030874;29;34759;-69
2024/01/13 02:24:53;;;;;;;11.77;6.75;;;;;;;-146.25;100.00;52710.88;2031389;29;31728;-69
2024/01/13 02:25:56;;;;;;;11.38;7.22;;;;;;;-146.25;100.00;52700.72;2030723;29;33973;-70
2024/01/13 02:26:57;;;;;;;15.07;6.90;;;;;;;-146.25;100.00;52658.16;2030851;29;32029;-70
2024/01/13 02:27:59;;;;;;;15.50;7.32;;;;;;;-146.25;100.00;52660.19;2031684;29;20135;-70
2024/01/13 02:29:01;;;;;;;9.80;6.40;;;;;;;-146.25;100.00;52650.03;2031559;29;36241;-64
2024/01/13 02:30:03;;;;;;;11.95;6.07;;;;;;;-146.25;100.00;52716.97;2030413;29;25634;-70
2024/01/13 02:31:05;;;;;;;13.05;6.28;;;;;;;-146.25;100.00;52672.34;2030911;29;30957;-71
2024/01/13 02:32:07;;;;;;;10.23;6.18;;;;;;;-146.25;100.00;52668.28;2031203;29;32446;-72
2024/01/13 02:33:09;;;;;;;13.57;6.35;;;;;;;-146.25;100.00;52686.53;2031561;29;32234;-71
2024/01/13 02:34:11;;;;;;;14.35;6.20;;;;;;;-146.25;100.00;52672.34;2031186;29;36302;-70
2024/01/13 02:35:13;;;;;;;12.55;6.85;;;;;;;-146.25;100.00;52692.63;2031387;29;32162;-69
2024/01/13 02:36:15;;;;;;;11.23;6.00;;;;;;;-146.25;100.00;52716.97;2031025;29;33198;-70
2024/01/13 02:37:16;;;;;;;15.25;6.57;;;;;;;-146.25;100.00;52660.19;2031269;29;36120;-70
2024/01/13 02:38:18;;;;;;;8.50;5.93;;;;;;;-146.25;100.00;52684.50;2031324;29;20152;-69
2024/01/13 02:39:26;;;;;;;12.90;5.88;;;;;;;-146.25;100.00;52708.84;2031239;29;37680;-70
2024/01/13 02:40:28;;;;;;;9.70;6.00;;;;;;;-146.25;100.00;52670.31;2031383;29;20033;-68
2024/01/13 02:41:32;;;;;;;10.40;5.80;;;;;;;-146.25;100.00;52668.28;2031353;29;36854;-69
2024/01/13 02:42:34;;;;;;;12.07;5.90;;;;;;;-146.25;100.00;52702.75;2030150;29;30187;-69
2024/01/13 02:43:37;;;;;;;12.00;6.00;;;;;;;-146.25;100.00;52625.72;2031162;29;31691;-70
2024/01/13 02:44:38;;;;;;;11.30;6.07;;;;;;;-146.25;100.00;52690.59;2030324;29;35559;-66
2024/01/13 02:45:40;;;;;;;11.48;6.32;;;;;;;-146.25;100.00;52684.50;2032377;29;20033;-70
2024/01/13 02:46:42;;;;;;;14.30;5.97;;;;;;;-146.25;100.00;52688.56;2030724;29;36060;-70
2024/01/13 02:48:03;;;;;;;12.27;5.38;;;;;;;-146.25;100.00;52688.56;2031456;29;36656;-71
2024/01/13 02:49:09;;;;;;;12.43;5.88;;;;;;;-146.25;100.00;52696.69;2030900;29;31532;-70
2024/01/13 02:50:13;;;;;;;11.68;6.00;;;;;;;-146.25;100.00;52670.31;2027603;29;35615;-70
2024/01/13 02:51:16;;;;;;;9.82;6.35;;;;;;;-146.25;100.00;52658.16;2024173;29;20049;-70
2024/01/13 02:52:21;;;;;;;10.80;6.50;;;;;;;-146.25;100.00;52690.59;2030970;29;33940;-70
2024/01/13 02:53:23;;;;;;;11.25;5.75;;;;;;;-146.25;100.00;52694.66;2030305;29;37125;-71
2024/01/13 02:54:24;;;;;;;16.13;5.50;;;;;;;-146.25;100.00;52700.72;2030849;29;34481;-70
2024/01/13 02:55:26;;;;;;;10.95;5.95;;;;;;;-146.25;100.00;52684.50;2031153;29;33620;-70
2024/01/13 02:56:28;;;;;;;10.15;6.53;;;;;;;-146.25;100.00;52686.53;2035099;29;20853;-70
2024/01/13 02:57:30;;;;;;;11.52;6.03;;;;;;;-146.25;100.00;52688.56;2023616;29;37635;-69
2024/01/13 02:58:34;;;;;;;10.52;6.00;;;;;;;-146.25;100.00;52635.84;2036731;29;34528;-70
2024/01/13 02:59:41;;;;;;;10.82;5.75;;;;;;;-146.25;100.00;52694.66;2038094;29;33027;-71
2024/01/13 03:00:43;;;;;;;11.85;5.63;;;;;;;-146.25;100.00;52696.69;2036369;29;31686;-70
2024/01/13 03:01:45;;;;;;;12.82;6.00;;;;;;;-146.25;100.00;52680.47;2039195;29;36507;-70
2024/01/13 03:02:46;;;;;;;11.88;5.72;;;;;;;-146.25;100.00;52684.50;2039415;29;32395;-70
2024/01/13 03:03:52;;;;;;;10.02;5.32;;;;;;;-146.25;100.00;52648.00;2039003;28;35426;-70
2024/01/13 03:04:57;;;;;;;11.68;5.47;;;;;;;-146.25;100.00;52694.66;2039906;29;20036;-70
2024/01/13 03:05:59;;;;;;;10.13;5.57;;;;;;;-146.25;100.00;52702.75;2039041;29;32889;-70
2024/01/13 03:07:03;;;;;;;11.18;6.00;;;;;;;-146.25;100.00;52694.66;2039430;29;30604;-69
2024/01/13 03:08:05;;;;;;;10.63;5.43;;;;;;;-146.25;100.00;52686.53;2039088;29;33404;-70
2024/01/13 03:09:07;;;;;;;11.30;6.18;;;;;;;-146.25;100.00;52692.63;2038939;29;33464;-70
2024/01/13 03:10:09;;;;;;;8.73;5.40;;;;;;;-146.25;100.00;52674.38;2038709;29;31388;-70
2024/01/13 03:11:14;;;;;;;11.38;5.65;;;;;;;-146.25;100.00;52668.28;2039172;29;28438;-70
2024/01/13 03:12:16;;;;;;;11.27;5.47;;;;;;;-146.25;100.00;52692.63;2039484;29;32054;-70
2024/01/13 03:13:18;;;;;;;12.32;5.75;;;;;;;-146.25;100.00;52674.38;2039624;29;21442;-70
2024/01/13 03:14:20;;;;;;;7.32;5.18;;;;;;;-146.25;100.00;52702.75;2039057;29;25961;-71
2024/01/13 03:15:22;;;;;;;7.78;5.30;;;;;;;-146.25;100.00;52658.16;2039156;29;32033;-69
2024/01/13 03:16:24;;;;;;;10.43;5.18;;;;;;;-146.25;100.00;52708.84;2038901;29;20040;-71
2024/01/13 03:17:26;;;;;;;10.80;5.28;;;;;;;-146.25;100.00;52684.50;2038563;29;37289;-70
2024/01/13 03:18:28;;;;;;;8.00;4.57;;;;;;;-146.25;100.00;52639.91;2040797;29;31418;-70
2024/01/13 03:19:34;;;;;;;8.68;5.10;;;;;;;-146.25;100.00;52648.00;2039525;29;20047;-70
2024/01/13 03:20:36;;;;;;;7.93;5.18;;;;;;;-146.25;100.00;52690.59;2039222;29;36474;-70
2024/01/13 03:21:38;;;;;;;9.63;4.93;;;;;;;-146.25;100.00;52714.94;2031727;29;27150;-70
2024/01/13 03:23:08;;;;;;;10.02;5.35;;;;;;;-146.25;100.00;52698.72;2023231;29;20501;-70
2024/01/13 03:24:21;;;;;;;13.27;4.85;;;;;;;-146.25;100.00;52686.53;2027992;29;35537;-71
2024/01/13 03:25:23;;;;;;;9.35;4.57;;;;;;;-146.25;100.00;52723.03;2030950;29;20037;-70
2024/01/13 03:26:24;;;;;;;6.70;4.72;;;;;;;-146.25;100.00;52674.38;2030950;29;20051;-70
2024/01/13 03:27:26;;;;;;;8.32;5.45;;;;;;;-146.25;100.00;52690.59;2023144;29;31610;-70
2024/01/13 03:28:28;;;;;;;8.43;4.72;;;;;;;-146.25;100.00;52702.75;2022583;29;38472;-68
2024/01/13 03:29:34;;;;;;;7.03;5.05;;;;;;;-146.25;100.00;52678.44;2031467;29;20040;-70
2024/01/13 03:30:39;;;;;;;8.30;4.90;;;;;;;-146.25;100.00;52696.69;2031309;29;33901;-70
2024/01/13 03:31:40;;;;;;;7.88;4.63;;;;;;;-146.25;100.00;52656.13;2030753;29;33381;-70
2024/01/13 03:32:44;;;;;;;9.73;4.90;;;;;;;-146.25;100.00;52674.38;2031246;29;20037;-70
2024/01/13 03:33:46;;;;;;;8.30;5.03;;;;;;;-146.25;100.00;52721.00;2030857;29;35798;-70
2024/01/13 03:34:48;;;;;;;11.30;4.97;;;;;;;-146.25;100.00;52654.09;2030896;29;20095;-69
2024/01/13 03:35:50;;;;;;;9.02;5.13;;;;;;;-146.25;100.00;52700.72;2033462;29;20910;-69
2024/01/13 03:36:52;;;;;;;12.57;5.25;;;;;;;-146.25;100.00;52680.47;2032018;29;34777;-70
2024/01/13 03:37:54;;;;;;;8.55;4.95;;;;;;;-146.25;100.00;52704.78;2023552;29;34907;-70
2024/01/13 03:38:56;;;;;;;8.75;5.30;;;;;;;-146.25;100.00;52706.81;2024434;29;20270;-70
2024/01/13 03:39:59;;;;;;;7.40;5.00;;;;;;;-146.25;100.00;52674.38;2031774;29;35820;-70
2024/01/13 03:41:01;;;;;;;11.23;5.20;;;;;;;-146.25;100.00;52692.63;2032817;29;20981;-70
2024/01/13 03:42:06;;;;;;;7.88;5.25;;;;;;;-146.25;100.00;52686.53;2032310;29;21163;-71
2024/01/13 03:43:08;;;;;;;11.45;5.85;;;;;;;-146.25;100.00;52656.13;2032260;29;33047;-69
2024/01/13 03:44:10;;;;;;;8.45;5.45;;;;;;;-146.25;100.00;52704.78;2032917;29;20041;-67
2024/01/13 03:45:15;;;;;;;7.13;5.03;;;;;;;-146.25;100.00;52662.22;2032009;29;32737;-70
2024/01/13 03:46:17;;;;;;;10.35;4.90;;;;;;;-146.25;100.00;52696.69;2032925;29;20164;-70
2024/01/13 03:47:19;;;;;;;9.70;4.93;;;;;;;-146.25;100.00;52656.13;2031832;29;37820;-70
2024/01/13 03:48:20;;;;;;;7.88;4.47;;;;;;;-146.25;100.00;52710.88;2032601;29;31584;-68
2024/01/13 03:49:22;;;;;;;7.28;4.82;;;;;;;-146.25;100.00;52684.50;2035052;29;20049;-70
2024/01/13 03:50:24;;;;;;;8.20;4.45;;;;;;;-146.25;100.00;52684.50;2032374;29;35636;-72
2024/01/13 03:51:26;;;;;;;8.65;4.82;;;;;;;-146.25;100.00;52688.56;2032271;29;33450;-71
2024/01/13 03:52:28;;;;;;;6.53;4.60;;;;;;;-146.25;100.00;52692.63;2032748;29;20045;-70
2024/01/13 03:53:29;;;;;;;10.00;4.85;;;;;;;-146.25;100.00;52696.69;2031648;29;20041;-69
2024/01/13 03:54:33;;;;;;;7.35;4.25;;;;;;;-146.25;100.00;52672.34;2031453;29;36122;-69
2024/01/13 03:55:35;;;;;;;6.05;4.25;;;;;;;-146.25;100.00;52656.13;2031745;29;33480;-72
2024/01/13 03:56:37;;;;;;;6.40;4.85;;;;;;;-146.25;100.00;52672.34;2033247;29;20041;-70
2024/01/13 03:57:39;;;;;;;6.82;4.78;;;;;;;-146.25;100.00;52676.41;2031987;29;30321;-69
2024/01/13 03:58:46;;;;;;;8.90;4.80;;;;;;;-146.25;100.00;52700.72;2032494;29;31018;-70
2024/01/13 03:59:48;;;;;;;7.65;4.22;;;;;;;-146.25;100.00;52700.72;2032209;29;20052;-68
2024/01/13 04:00:50;;;;;;;7.93;4.13;;;;;;;-146.25;100.00;52656.13;2032529;29;22234;-70
2024/01/13 04:01:54;;;;;;;6.65;4.18;;;;;;;-146.25;100.00;52625.72;2032366;29;33908;-69
2024/01/13 04:02:56;;;;;;;7.28;4.38;;;;;;;-146.25;100.00;52696.69;2032830;29;20817;-69
2024/01/13 04:04:00;;;;;;;6.45;3.88;;;;;;;-146.25;100.00;52688.56;2032743;29;20175;-70
2024/01/13 04:05:04;;;;;;;6.70;4.22;;;;;;;-146.25;100.00;52660.19;2031989;29;32365;-69
2024/01/13 04:06:06;;;;;;;8.75;4.00;;;;;;;-146.25;100.00;52666.25;2032650;29;20784;-70
2024/01/13 04:07:10;;;;;;;8.15;4.05;;;;;;;-146.25;100.00;52658.16;2035755;29;35617;-70
2024/01/13 04:08:12;;;;;;;8.23;4.05;;;;;;;-146.25;100.00;52676.41;2039950;29;35712;-69
2024/01/13 04:09:14;;;;;;;5.88;3.72;;;;;;;-146.25;100.00;52684.50;2039485;29;20126;-70
2024/01/13 04:10:16;;;;;;;6.35;4.20;;;;;;;-146.25;100.00;52686.53;2040942;29;20043;-69
2024/01/13 04:11:18;;;;;;;9.40;4.68;;;;;;;-146.25;100.00;52682.47;2040566;29;32418;-70
2024/01/13 04:12:21;;;;;;;9.18;3.88;;;;;;;-146.25;100.00;52682.47;2040784;29;23926;-69
2024/01/13 04:13:24;;;;;;;7.95;4.35;;;;;;;-146.25;100.00;52668.28;2032196;29;20423;-69
2024/01/13 04:14:25;;;;;;;6.15;3.83;;;;;;;-146.25;100.00;52690.59;2031632;29;36626;-70
2024/01/13 04:15:27;;;;;;;7.75;4.18;;;;;;;-146.25;100.00;52686.53;2040938;29;25582;-70
2024/01/13 04:16:30;;;;;;;6.03;3.83;;;;;;;-146.25;100.00;52680.47;2040504;29;29104;-69
2024/01/13 04:17:32;;;;;;;5.97;4.32;;;;;;;-146.25;100.00;52662.22;2032030;29;34225;-69
2024/01/13 04:18:33;;;;;;;6.82;4.70;;;;;;;-146.25;100.00;52643.97;2032232;29;20175;-69
2024/01/13 04:19:35;;;;;;;7.57;4.07;;;;;;;-146.25;100.00;52660.19;2042073;28;36705;-68
2024/01/13 04:20:40;;;;;;;5.70;3.60;;;;;;;-146.25;100.00;52686.53;2040469;29;33664;-70
2024/01/13 04:21:42;;;;;;;4.82;3.60;;;;;;;-146.25;100.00;52696.69;2025221;29;20041;-72
2024/01/13 04:22:44;;;;;;;7.05;4.18;;;;;;;-146.25;100.00;52706.81;2024483;29;36685;-69
2024/01/13 04:23:46;;;;;;;7.97;4.20;;;;;;;-146.25;100.00;52700.72;2029536;29;31562;-70
2024/01/13 04:24:48;;;;;;;5.88;3.58;;;;;;;-146.25;100.00;52712.91;2032843;29;20041;-68
2024/01/13 04:25:50;;;;;;;6.97;4.30;;;;;;;-146.25;100.00;52692.63;2032472;29;32878;-68
2024/01/13 04:26:52;;;;;;;6.28;3.80;;;;;;;-146.25;100.00;52690.59;2031710;29;30261;-70
2024/01/13 04:27:56;;;;;;;7.03;4.45;;;;;;;-146.25;100.00;52684.50;2032335;29;20040;-70
2024/01/13 04:29:00;;;;;;;6.18;4.47;;;;;;;-146.25;100.00;52692.63;2032088;29;32116;-70
2024/01/13 04:30:02;;;;;;;6.45;3.83;;;;;;;-146.25;100.00;52672.34;2032318;29;32135;-69
2024/01/13 04:31:04;;;;;;;7.55;4.20;;;;;;;-146.25;100.00;52686.53;2032778;29;20056;-70
2024/01/13 04:32:06;;;;;;;6.13;4.15;;;;;;;-146.25;100.00;52696.69;2032268;29;31725;-72
2024/01/13 04:33:08;;;;;;;6.35;4.70;;;;;;;-146.25;100.00;52700.72;2040061;29;33110;-70
2024/01/13 04:34:10;;;;;;;7.65;4.35;;;;;;;-146.25;100.00;52654.09;2040760;29;21079;-70
2024/01/13 04:35:12;;;;;;;7.28;4.55;;;;;;;-146.25;100.00;52708.84;2040011;29;36801;-69
2024/01/13 04:36:14;;;;;;;6.85;4.22;;;;;;;-146.25;100.00;52648.00;2040289;29;29078;-70
2024/01/13 04:37:17;;;;;;;7.47;4.15;;;;;;;-146.25;100.00;52696.69;2040219;29;20814;-72
2024/01/13 04:38:19;;;;;;;7.60;4.30;;;;;;;-146.25;100.00;52696.69;2039893;29;27851;-70
2024/01/13 04:39:24;;;;;;;8.10;4.25;;;;;;;-146.25;100.00;52688.56;2039781;29;36627;-69
2024/01/13 04:40:26;;;;;;;5.40;3.78;;;;;;;-146.25;100.00;52648.00;2031699;29;33931;-69
2024/01/13 04:41:27;;;;;;;5.63;4.10;;;;;;;-146.25;100.00;52694.66;2023213;29;34678;-70
2024/01/13 04:42:33;;;;;;;6.10;4.35;;;;;;;-146.25;100.00;52668.28;2031573;29;33277;-70
2024/01/13 04:43:38;;;;;;;6.35;4.03;;;;;;;-146.25;100.00;52652.06;2039905;29;33028;-70